sensor_id;sensor_type;location;lat;lon;timestamp;P1;durP1;ratioP1;P2;durP2;ratioP2
52104;SDS011;38103;42.776;23.112;2022-09-09T00:04:31;16.30;;;10.15;;
52104;SDS011;38103;42.776;23.112;2022-09-09T00:07:15;17.75;;;9.40;;
52104;SDS011;38103;42.776;23.112;2022-09-09T00:10:15;15.73;;;10.05;;
52104;SDS011;38103;42.776;23.112;2022-09-09T00:15:25;19.80;;;10.00;;
52104;SDS011;38103;42.776;23.112;2022-09-09T00:17:58;15.38;;;10.10;;
52104;SDS011;38103;42.776;23.112;2022-09-09T00:23:22;16.38;;;9.13;;
52104;SDS011;38103;42.776;23.112;2022-09-09T00:28:46;14.55;;;9.23;;
52104;SDS011;38103;42.776;23.112;2022-09-09T00:31:26;15.52;;;9.50;;
52104;SDS011;38103;42.776;23.112;2022-09-09T00:33:55;15.73;;;9.93;;
52104;SDS011;38103;42.776;23.112;2022-09-09T00:36:26;15.20;;;9.68;;
52104;SDS011;38103;42.776;23.112;2022-09-09T00:38:56;15.57;;;9.45;;
52104;SDS011;38103;42.776;23.112;2022-09-09T00:44:43;15.10;;;9.57;;
52104;SDS011;38103;42.776;23.112;2022-09-09T00:52:41;18.58;;;9.82;;
52104;SDS011;38103;42.776;23.112;2022-09-09T00:55:20;18.40;;;10.38;;
52104;SDS011;38103;42.776;23.112;2022-09-09T00:58:08;16.15;;;9.65;;
52104;SDS011;38103;42.776;23.112;2022-09-09T01:00:40;16.45;;;9.60;;
52104;SDS011;38103;42.776;23.112;2022-09-09T01:03:19;16.65;;;10.52;;
52104;SDS011;38103;42.776;23.112;2022-09-09T01:05:53;17.23;;;10.23;;
52104;SDS011;38103;42.776;23.112;2022-09-09T01:11:05;16.45;;;9.60;;
52104;SDS011;38103;42.776;23.112;2022-09-09T01:13:40;15.90;;;10.50;;
52104;SDS011;38103;42.776;23.112;2022-09-09T01:16:10;16.88;;;10.15;;
52104;SDS011;38103;42.776;23.112;2022-09-09T01:18:40;17.05;;;10.55;;
52104;SDS011;38103;42.776;23.112;2022-09-09T01:26:41;20.58;;;11.80;;
52104;SDS011;38103;42.776;23.112;2022-09-09T01:29:09;19.67;;;10.95;;
52104;SDS011;38103;42.776;23.112;2022-09-09T01:31:37;18.63;;;11.27;;
52104;SDS011;38103;42.776;23.112;2022-09-09T01:34:16;17.65;;;10.88;;
52104;SDS011;38103;42.776;23.112;2022-09-09T01:39:31;17.23;;;10.30;;
52104;SDS011;38103;42.776;23.112;2022-09-09T01:41:59;18.65;;;11.43;;
52104;SDS011;38103;42.776;23.112;2022-09-09T01:44:25;19.40;;;11.82;;
52104;SDS011;38103;42.776;23.112;2022-09-09T01:46:54;20.40;;;12.25;;
52104;SDS011;38103;42.776;23.112;2022-09-09T01:49:19;16.75;;;11.63;;
52104;SDS011;38103;42.776;23.112;2022-09-09T01:51:46;17.02;;;11.77;;
52104;SDS011;38103;42.776;23.112;2022-09-09T01:54:17;19.23;;;12.20;;
52104;SDS011;38103;42.776;23.112;2022-09-09T02:04:44;17.40;;;11.68;;
52104;SDS011;38103;42.776;23.112;2022-09-09T02:07:34;17.80;;;12.32;;
52104;SDS011;38103;42.776;23.112;2022-09-09T02:12:55;19.38;;;12.65;;
52104;SDS011;38103;42.776;23.112;2022-09-09T02:18:33;21.40;;;14.07;;
52104;SDS011;38103;42.776;23.112;2022-09-09T02:21:04;18.30;;;11.95;;
52104;SDS011;38103;42.776;23.112;2022-09-09T02:23:31;17.67;;;11.88;;
52104;SDS011;38103;42.776;23.112;2022-09-09T02:25:59;19.30;;;12.55;;
52104;SDS011;38103;42.776;23.112;2022-09-09T02:28:27;19.10;;;12.52;;
52104;SDS011;38103;42.776;23.112;2022-09-09T02:30:56;19.10;;;12.68;;
52104;SDS011;38103;42.776;23.112;2022-09-09T02:33:24;18.08;;;12.77;;
52104;SDS011;38103;42.776;23.112;2022-09-09T02:35:52;17.58;;;12.18;;
52104;SDS011;38103;42.776;23.112;2022-09-09T02:38:21;24.48;;;13.73;;
52104;SDS011;38103;42.776;23.112;2022-09-09T02:40:51;20.17;;;12.20;;
52104;SDS011;38103;42.776;23.112;2022-09-09T02:43:17;19.75;;;13.32;;
52104;SDS011;38103;42.776;23.112;2022-09-09T02:56:37;18.90;;;12.32;;
52104;SDS011;38103;42.776;23.112;2022-09-09T02:59:06;22.35;;;12.93;;
52104;SDS011;38103;42.776;23.112;2022-09-09T03:01:32;18.63;;;12.40;;
52104;SDS011;38103;42.776;23.112;2022-09-09T03:03:57;19.45;;;13.65;;
52104;SDS011;38103;42.776;23.112;2022-09-09T03:06:23;20.60;;;13.80;;
52104;SDS011;38103;42.776;23.112;2022-09-09T03:08:48;19.67;;;12.88;;
52104;SDS011;38103;42.776;23.112;2022-09-09T03:11:15;19.90;;;13.77;;
52104;SDS011;38103;42.776;23.112;2022-09-09T03:13:41;20.50;;;13.63;;
52104;SDS011;38103;42.776;23.112;2022-09-09T03:16:06;19.48;;;13.77;;
52104;SDS011;38103;42.776;23.112;2022-09-09T03:18:32;20.25;;;13.13;;
52104;SDS011;38103;42.776;23.112;2022-09-09T03:20:57;21.48;;;12.52;;
52104;SDS011;38103;42.776;23.112;2022-09-09T03:23:24;23.58;;;13.00;;
52104;SDS011;38103;42.776;23.112;2022-09-09T03:25:50;18.92;;;11.95;;
52104;SDS011;38103;42.776;23.112;2022-09-09T03:28:17;21.55;;;11.98;;
52104;SDS011;38103;42.776;23.112;2022-09-09T03:30:42;18.83;;;12.43;;
52104;SDS011;38103;42.776;23.112;2022-09-09T03:33:07;18.80;;;12.57;;
52104;SDS011;38103;42.776;23.112;2022-09-09T03:35:33;20.30;;;11.93;;
52104;SDS011;38103;42.776;23.112;2022-09-09T03:37:58;20.52;;;13.82;;
52104;SDS011;38103;42.776;23.112;2022-09-09T03:40:24;21.27;;;13.32;;
52104;SDS011;38103;42.776;23.112;2022-09-09T03:42:49;22.83;;;14.18;;
52104;SDS011;38103;42.776;23.112;2022-09-09T03:45:14;20.52;;;13.50;;
52104;SDS011;38103;42.776;23.112;2022-09-09T03:47:40;20.42;;;13.52;;
52104;SDS011;38103;42.776;23.112;2022-09-09T03:50:06;20.35;;;13.63;;
52104;SDS011;38103;42.776;23.112;2022-09-09T03:52:37;22.15;;;14.75;;
52104;SDS011;38103;42.776;23.112;2022-09-09T03:55:04;21.30;;;13.95;;
52104;SDS011;38103;42.776;23.112;2022-09-09T03:57:31;25.65;;;14.18;;
52104;SDS011;38103;42.776;23.112;2022-09-09T03:59:59;28.98;;;14.18;;
52104;SDS011;38103;42.776;23.112;2022-09-09T04:02:26;22.33;;;12.75;;
52104;SDS011;38103;42.776;23.112;2022-09-09T04:04:51;24.17;;;12.93;;
52104;SDS011;38103;42.776;23.112;2022-09-09T04:07:16;23.02;;;14.00;;
52104;SDS011;38103;42.776;23.112;2022-09-09T04:09:42;25.40;;;14.95;;
52104;SDS011;38103;42.776;23.112;2022-09-09T04:12:07;27.98;;;14.70;;
52104;SDS011;38103;42.776;23.112;2022-09-09T04:14:33;24.30;;;14.73;;
52104;SDS011;38103;42.776;23.112;2022-09-09T04:16:58;23.13;;;14.98;;
52104;SDS011;38103;42.776;23.112;2022-09-09T04:19:24;21.05;;;14.30;;
52104;SDS011;38103;42.776;23.112;2022-09-09T04:21:50;26.90;;;14.35;;
52104;SDS011;38103;42.776;23.112;2022-09-09T04:24:16;24.77;;;15.43;;
52104;SDS011;38103;42.776;23.112;2022-09-09T04:26:42;24.92;;;15.43;;
52104;SDS011;38103;42.776;23.112;2022-09-09T04:29:08;24.00;;;15.70;;
52104;SDS011;38103;42.776;23.112;2022-09-09T04:31:34;27.45;;;15.85;;
52104;SDS011;38103;42.776;23.112;2022-09-09T04:33:59;28.23;;;15.52;;
52104;SDS011;38103;42.776;23.112;2022-09-09T04:36:30;21.77;;;14.55;;
52104;SDS011;38103;42.776;23.112;2022-09-09T04:38:56;22.88;;;15.02;;
52104;SDS011;38103;42.776;23.112;2022-09-09T04:41:22;19.77;;;14.18;;
52104;SDS011;38103;42.776;23.112;2022-09-09T04:43:47;22.67;;;14.75;;
52104;SDS011;38103;42.776;23.112;2022-09-09T04:46:13;24.45;;;13.73;;
52104;SDS011;38103;42.776;23.112;2022-09-09T04:48:38;22.95;;;14.00;;
52104;SDS011;38103;42.776;23.112;2022-09-09T04:51:05;20.65;;;13.63;;
52104;SDS011;38103;42.776;23.112;2022-09-09T04:53:32;25.50;;;13.82;;
52104;SDS011;38103;42.776;23.112;2022-09-09T04:56:06;21.10;;;11.75;;
52104;SDS011;38103;42.776;23.112;2022-09-09T04:58:37;20.33;;;12.63;;
52104;SDS011;38103;42.776;23.112;2022-09-09T05:03:30;18.67;;;10.70;;
52104;SDS011;38103;42.776;23.112;2022-09-09T05:06:02;19.02;;;12.13;;
52104;SDS011;38103;42.776;23.112;2022-09-09T05:08:35;17.10;;;11.05;;
52104;SDS011;38103;42.776;23.112;2022-09-09T05:11:24;17.50;;;10.73;;
52104;SDS011;38103;42.776;23.112;2022-09-09T05:13:52;16.17;;;10.00;;
52104;SDS011;38103;42.776;23.112;2022-09-09T05:16:18;16.45;;;9.82;;
52104;SDS011;38103;42.776;23.112;2022-09-09T05:18:44;14.82;;;10.02;;
52104;SDS011;38103;42.776;23.112;2022-09-09T05:21:11;15.77;;;9.05;;
52104;SDS011;38103;42.776;23.112;2022-09-09T05:23:38;16.45;;;9.82;;
52104;SDS011;38103;42.776;23.112;2022-09-09T05:26:04;20.17;;;10.60;;
52104;SDS011;38103;42.776;23.112;2022-09-09T05:28:30;17.52;;;9.50;;
52104;SDS011;38103;42.776;23.112;2022-09-09T05:30:59;16.38;;;9.05;;
52104;SDS011;38103;42.776;23.112;2022-09-09T05:33:26;15.57;;;8.85;;
52104;SDS011;38103;42.776;23.112;2022-09-09T05:35:59;14.57;;;8.73;;
52104;SDS011;38103;42.776;23.112;2022-09-09T05:38:26;14.48;;;9.13;;
52104;SDS011;38103;42.776;23.112;2022-09-09T05:40:52;17.38;;;9.23;;
52104;SDS011;38103;42.776;23.112;2022-09-09T05:43:19;17.83;;;8.90;;
52104;SDS011;38103;42.776;23.112;2022-09-09T05:45:47;18.13;;;8.40;;
52104;SDS011;38103;42.776;23.112;2022-09-09T05:48:14;15.48;;;8.80;;
52104;SDS011;38103;42.776;23.112;2022-09-09T05:50:41;14.40;;;8.38;;
52104;SDS011;38103;42.776;23.112;2022-09-09T05:53:07;15.70;;;8.65;;
52104;SDS011;38103;42.776;23.112;2022-09-09T05:55:33;15.20;;;7.60;;
52104;SDS011;38103;42.776;23.112;2022-09-09T05:57:59;15.48;;;7.70;;
52104;SDS011;38103;42.776;23.112;2022-09-09T06:00:24;14.88;;;7.28;;
52104;SDS011;38103;42.776;23.112;2022-09-09T06:02:54;17.48;;;7.75;;
52104;SDS011;38103;42.776;23.112;2022-09-09T06:05:19;14.02;;;7.03;;
52104;SDS011;38103;42.776;23.112;2022-09-09T06:07:45;17.35;;;7.40;;
52104;SDS011;38103;42.776;23.112;2022-09-09T06:10:11;15.18;;;7.70;;
52104;SDS011;38103;42.776;23.112;2022-09-09T06:12:38;15.82;;;8.07;;
52104;SDS011;38103;42.776;23.112;2022-09-09T06:15:04;14.77;;;7.20;;
52104;SDS011;38103;42.776;23.112;2022-09-09T06:17:30;16.58;;;7.50;;
52104;SDS011;38103;42.776;23.112;2022-09-09T06:19:56;17.73;;;7.38;;
52104;SDS011;38103;42.776;23.112;2022-09-09T06:22:22;14.77;;;8.52;;
52104;SDS011;38103;42.776;23.112;2022-09-09T06:24:47;13.05;;;7.38;;
52104;SDS011;38103;42.776;23.112;2022-09-09T06:27:12;13.73;;;7.72;;
52104;SDS011;38103;42.776;23.112;2022-09-09T06:29:38;19.35;;;7.63;;
52104;SDS011;38103;42.776;23.112;2022-09-09T06:32:04;15.50;;;8.07;;
52104;SDS011;38103;42.776;23.112;2022-09-09T06:34:29;14.95;;;8.57;;
52104;SDS011;38103;42.776;23.112;2022-09-09T06:36:55;13.85;;;7.15;;
52104;SDS011;38103;42.776;23.112;2022-09-09T06:39:22;14.57;;;7.78;;
52104;SDS011;38103;42.776;23.112;2022-09-09T06:41:48;17.60;;;8.32;;
52104;SDS011;38103;42.776;23.112;2022-09-09T06:44:14;16.23;;;8.13;;
52104;SDS011;38103;42.776;23.112;2022-09-09T06:46:40;13.02;;;7.32;;
52104;SDS011;38103;42.776;23.112;2022-09-09T06:49:07;18.52;;;8.07;;
52104;SDS011;38103;42.776;23.112;2022-09-09T06:51:34;13.27;;;7.90;;
52104;SDS011;38103;42.776;23.112;2022-09-09T06:54:01;14.35;;;7.25;;
52104;SDS011;38103;42.776;23.112;2022-09-09T06:59:00;17.98;;;8.60;;
52104;SDS011;38103;42.776;23.112;2022-09-09T07:01:29;17.98;;;8.88;;
52104;SDS011;38103;42.776;23.112;2022-09-09T07:03:57;15.60;;;8.23;;
52104;SDS011;38103;42.776;23.112;2022-09-09T07:06:30;17.50;;;8.73;;
52104;SDS011;38103;42.776;23.112;2022-09-09T07:09:02;16.05;;;8.18;;
52104;SDS011;38103;42.776;23.112;2022-09-09T07:11:30;19.65;;;8.05;;
52104;SDS011;38103;42.776;23.112;2022-09-09T07:13:58;14.82;;;7.55;;
52104;SDS011;38103;42.776;23.112;2022-09-09T07:16:25;19.02;;;8.30;;
52104;SDS011;38103;42.776;23.112;2022-09-09T07:18:52;13.80;;;7.53;;
52104;SDS011;38103;42.776;23.112;2022-09-09T07:21:20;16.70;;;7.47;;
52104;SDS011;38103;42.776;23.112;2022-09-09T07:23:46;13.25;;;7.50;;
52104;SDS011;38103;42.776;23.112;2022-09-09T07:26:13;16.05;;;7.18;;
52104;SDS011;38103;42.776;23.112;2022-09-09T07:28:40;12.70;;;6.90;;
52104;SDS011;38103;42.776;23.112;2022-09-09T07:31:07;16.65;;;7.15;;
52104;SDS011;38103;42.776;23.112;2022-09-09T07:33:38;18.48;;;7.00;;
52104;SDS011;38103;42.776;23.112;2022-09-09T07:38:42;14.52;;;7.05;;
52104;SDS011;38103;42.776;23.112;2022-09-09T07:41:11;14.63;;;7.25;;
52104;SDS011;38103;42.776;23.112;2022-09-09T07:43:39;12.35;;;6.97;;
52104;SDS011;38103;42.776;23.112;2022-09-09T07:46:05;13.60;;;7.07;;
52104;SDS011;38103;42.776;23.112;2022-09-09T07:48:31;12.68;;;6.25;;
52104;SDS011;38103;42.776;23.112;2022-09-09T07:51:07;15.43;;;6.55;;
52104;SDS011;38103;42.776;23.112;2022-09-09T07:53:35;12.88;;;6.63;;
52104;SDS011;38103;42.776;23.112;2022-09-09T07:56:08;15.98;;;7.47;;
52104;SDS011;38103;42.776;23.112;2022-09-09T07:58:36;14.77;;;7.20;;
52104;SDS011;38103;42.776;23.112;2022-09-09T08:01:09;14.57;;;6.57;;
52104;SDS011;38103;42.776;23.112;2022-09-09T08:03:46;13.90;;;7.22;;
52104;SDS011;38103;42.776;23.112;2022-09-09T08:06:17;12.00;;;6.30;;
52104;SDS011;38103;42.776;23.112;2022-09-09T08:08:42;14.23;;;7.00;;
52104;SDS011;38103;42.776;23.112;2022-09-09T08:11:09;13.07;;;7.18;;
52104;SDS011;38103;42.776;23.112;2022-09-09T08:13:39;13.43;;;6.38;;
52104;SDS011;38103;42.776;23.112;2022-09-09T08:18:31;15.07;;;6.93;;
52104;SDS011;38103;42.776;23.112;2022-09-09T08:20:57;15.10;;;7.22;;
52104;SDS011;38103;42.776;23.112;2022-09-09T08:23:22;12.95;;;6.85;;
52104;SDS011;38103;42.776;23.112;2022-09-09T08:25:48;12.10;;;6.80;;
52104;SDS011;38103;42.776;23.112;2022-09-09T08:28:15;14.52;;;6.60;;
52104;SDS011;38103;42.776;23.112;2022-09-09T08:30:40;11.93;;;6.65;;
52104;SDS011;38103;42.776;23.112;2022-09-09T08:33:06;16.83;;;8.02;;
52104;SDS011;38103;42.776;23.112;2022-09-09T08:35:32;13.75;;;7.10;;
52104;SDS011;38103;42.776;23.112;2022-09-09T08:37:58;13.00;;;7.40;;
52104;SDS011;38103;42.776;23.112;2022-09-09T08:40:25;16.02;;;7.43;;
52104;SDS011;38103;42.776;23.112;2022-09-09T08:42:57;14.13;;;7.03;;
52104;SDS011;38103;42.776;23.112;2022-09-09T08:45:29;14.45;;;7.60;;
52104;SDS011;38103;42.776;23.112;2022-09-09T08:50:40;13.45;;;6.88;;
52104;SDS011;38103;42.776;23.112;2022-09-09T08:55:46;15.77;;;7.20;;
52104;SDS011;38103;42.776;23.112;2022-09-09T08:58:16;13.38;;;7.45;;
52104;SDS011;38103;42.776;23.112;2022-09-09T09:08:46;13.98;;;8.00;;
52104;SDS011;38103;42.776;23.112;2022-09-09T09:11:19;26.67;;;10.45;;
52104;SDS011;38103;42.776;23.112;2022-09-09T09:16:13;15.50;;;7.55;;
52104;SDS011;38103;42.776;23.112;2022-09-09T09:18:51;16.65;;;7.70;;
52104;SDS011;38103;42.776;23.112;2022-09-09T09:21:23;13.45;;;6.85;;
52104;SDS011;38103;42.776;23.112;2022-09-09T09:23:54;16.58;;;7.00;;
52104;SDS011;38103;42.776;23.112;2022-09-09T09:26:23;14.50;;;6.70;;
52104;SDS011;38103;42.776;23.112;2022-09-09T09:28:54;14.63;;;6.80;;
52104;SDS011;38103;42.776;23.112;2022-09-09T09:31:22;13.32;;;6.85;;
52104;SDS011;38103;42.776;23.112;2022-09-09T09:33:54;13.85;;;7.30;;
52104;SDS011;38103;42.776;23.112;2022-09-09T09:36:25;11.70;;;6.53;;
52104;SDS011;38103;42.776;23.112;2022-09-09T09:39:00;15.80;;;6.97;;
52104;SDS011;38103;42.776;23.112;2022-09-09T09:44:00;14.20;;;7.05;;
52104;SDS011;38103;42.776;23.112;2022-09-09T09:46:26;17.05;;;6.82;;
52104;SDS011;38103;42.776;23.112;2022-09-09T09:48:56;13.70;;;7.72;;
52104;SDS011;38103;42.776;23.112;2022-09-09T09:51:23;16.05;;;6.80;;
52104;SDS011;38103;42.776;23.112;2022-09-09T09:53:49;16.35;;;8.05;;
52104;SDS011;38103;42.776;23.112;2022-09-09T09:56:17;14.93;;;7.22;;
52104;SDS011;38103;42.776;23.112;2022-09-09T09:58:53;14.25;;;7.57;;
52104;SDS011;38103;42.776;23.112;2022-09-09T10:01:23;13.75;;;7.63;;
52104;SDS011;38103;42.776;23.112;2022-09-09T10:03:53;17.60;;;7.53;;
52104;SDS011;38103;42.776;23.112;2022-09-09T10:09:00;14.43;;;7.63;;
52104;SDS011;38103;42.776;23.112;2022-09-09T10:11:38;14.88;;;7.93;;
52104;SDS011;38103;42.776;23.112;2022-09-09T10:14:20;15.90;;;7.10;;
52104;SDS011;38103;42.776;23.112;2022-09-09T10:19:37;13.52;;;7.15;;
52104;SDS011;38103;42.776;23.112;2022-09-09T10:24:56;16.38;;;8.50;;
52104;SDS011;38103;42.776;23.112;2022-09-09T10:56:06;12.77;;;7.45;;
52104;SDS011;38103;42.776;23.112;2022-09-09T11:01:14;14.52;;;8.07;;
52104;SDS011;38103;42.776;23.112;2022-09-09T11:03:42;14.07;;;8.13;;
52104;SDS011;38103;42.776;23.112;2022-09-09T11:06:14;16.95;;;8.07;;
52104;SDS011;38103;42.776;23.112;2022-09-09T11:08:43;14.20;;;7.35;;
52104;SDS011;38103;42.776;23.112;2022-09-09T11:14:18;13.55;;;7.72;;
52104;SDS011;38103;42.776;23.112;2022-09-09T11:21:39;13.35;;;7.88;;
52104;SDS011;38103;42.776;23.112;2022-09-09T11:24:13;13.38;;;7.85;;
52104;SDS011;38103;42.776;23.112;2022-09-09T11:26:52;16.02;;;8.68;;
52104;SDS011;38103;42.776;23.112;2022-09-09T11:45:37;17.23;;;9.20;;
52104;SDS011;38103;42.776;23.112;2022-09-09T11:48:21;16.13;;;8.55;;
52104;SDS011;38103;42.776;23.112;2022-09-09T11:51:00;16.65;;;8.98;;
52104;SDS011;38103;42.776;23.112;2022-09-09T11:53:35;17.17;;;8.77;;
52104;SDS011;38103;42.776;23.112;2022-09-09T11:56:12;16.92;;;8.57;;
52104;SDS011;38103;42.776;23.112;2022-09-09T11:58:40;16.75;;;8.55;;
52104;SDS011;38103;42.776;23.112;2022-09-09T12:04:04;15.60;;;8.98;;
52104;SDS011;38103;42.776;23.112;2022-09-09T12:06:41;15.77;;;7.80;;
52104;SDS011;38103;42.776;23.112;2022-09-09T12:12:05;16.27;;;8.25;;
52104;SDS011;38103;42.776;23.112;2022-09-09T12:19:39;14.77;;;7.55;;
52104;SDS011;38103;42.776;23.112;2022-09-09T12:22:16;16.33;;;7.43;;
52104;SDS011;38103;42.776;23.112;2022-09-09T12:27:34;16.35;;;8.55;;
52104;SDS011;38103;42.776;23.112;2022-09-09T12:30:12;16.30;;;8.50;;
52104;SDS011;38103;42.776;23.112;2022-09-09T12:32:40;19.20;;;8.10;;
52104;SDS011;38103;42.776;23.112;2022-09-09T12:38:45;20.33;;;8.90;;
52104;SDS011;38103;42.776;23.112;2022-09-09T12:40:53;14.40;;;7.57;;
52104;SDS011;38103;42.776;23.112;2022-09-09T12:43:22;16.85;;;7.43;;
52104;SDS011;38103;42.776;23.112;2022-09-09T12:45:49;13.85;;;7.50;;
52104;SDS011;38103;42.776;23.112;2022-09-09T12:48:22;17.85;;;7.85;;
52104;SDS011;38103;42.776;23.112;2022-09-09T12:50:55;15.88;;;8.10;;
52104;SDS011;38103;42.776;23.112;2022-09-09T12:53:24;16.98;;;8.18;;
52104;SDS011;38103;42.776;23.112;2022-09-09T12:55:58;16.63;;;7.15;;
52104;SDS011;38103;42.776;23.112;2022-09-09T12:58:27;17.55;;;7.18;;
52104;SDS011;38103;42.776;23.112;2022-09-09T13:00:57;16.35;;;8.68;;
52104;SDS011;38103;42.776;23.112;2022-09-09T13:03:25;13.02;;;7.32;;
52104;SDS011;38103;42.776;23.112;2022-09-09T13:05:51;14.10;;;7.63;;
52104;SDS011;38103;42.776;23.112;2022-09-09T13:08:18;13.40;;;7.13;;
52104;SDS011;38103;42.776;23.112;2022-09-09T13:13:24;16.00;;;6.95;;
52104;SDS011;38103;42.776;23.112;2022-09-09T13:15:55;13.23;;;6.50;;
52104;SDS011;38103;42.776;23.112;2022-09-09T13:18:23;13.43;;;6.50;;
52104;SDS011;38103;42.776;23.112;2022-09-09T13:20:52;16.05;;;6.65;;
52104;SDS011;38103;42.776;23.112;2022-09-09T13:23:18;15.40;;;7.53;;
52104;SDS011;38103;42.776;23.112;2022-09-09T13:28:46;11.95;;;6.30;;
52104;SDS011;38103;42.776;23.112;2022-09-09T13:31:46;14.73;;;6.82;;
52104;SDS011;38103;42.776;23.112;2022-09-09T13:36:54;15.05;;;6.93;;
52104;SDS011;38103;42.776;23.112;2022-09-09T13:39:34;15.95;;;6.88;;
52104;SDS011;38103;42.776;23.112;2022-09-09T13:42:02;18.55;;;7.53;;
52104;SDS011;38103;42.776;23.112;2022-09-09T13:44:29;13.60;;;6.68;;
52104;SDS011;38103;42.776;23.112;2022-09-09T13:47:00;15.95;;;7.05;;
52104;SDS011;38103;42.776;23.112;2022-09-09T13:49:28;13.35;;;6.55;;
52104;SDS011;38103;42.776;23.112;2022-09-09T13:52:04;17.25;;;7.03;;
52104;SDS011;38103;42.776;23.112;2022-09-09T13:54:35;17.00;;;6.40;;
52104;SDS011;38103;42.776;23.112;2022-09-09T13:57:00;16.80;;;6.70;;
52104;SDS011;38103;42.776;23.112;2022-09-09T13:59:26;14.75;;;6.95;;
52104;SDS011;38103;42.776;23.112;2022-09-09T14:01:52;11.65;;;6.25;;
52104;SDS011;38103;42.776;23.112;2022-09-09T14:04:18;14.50;;;6.18;;
52104;SDS011;38103;42.776;23.112;2022-09-09T14:06:47;14.10;;;6.00;;
52104;SDS011;38103;42.776;23.112;2022-09-09T14:09:15;16.35;;;5.93;;
52104;SDS011;38103;42.776;23.112;2022-09-09T14:11:41;13.57;;;5.93;;
52104;SDS011;38103;42.776;23.112;2022-09-09T14:14:07;17.25;;;6.82;;
52104;SDS011;38103;42.776;23.112;2022-09-09T14:16:33;13.32;;;5.45;;
52104;SDS011;38103;42.776;23.112;2022-09-09T14:18:58;14.73;;;5.32;;
52104;SDS011;38103;42.776;23.112;2022-09-09T14:21:24;15.05;;;6.10;;
52104;SDS011;38103;42.776;23.112;2022-09-09T14:23:50;12.15;;;5.60;;
52104;SDS011;38103;42.776;23.112;2022-09-09T14:26:15;15.07;;;5.72;;
52104;SDS011;38103;42.776;23.112;2022-09-09T14:28:41;14.68;;;5.72;;
52104;SDS011;38103;42.776;23.112;2022-09-09T14:31:06;13.90;;;5.90;;
52104;SDS011;38103;42.776;23.112;2022-09-09T14:33:32;14.82;;;5.82;;
52104;SDS011;38103;42.776;23.112;2022-09-09T14:36:02;13.40;;;5.63;;
52104;SDS011;38103;42.776;23.112;2022-09-09T14:38:29;15.40;;;5.60;;
52104;SDS011;38103;42.776;23.112;2022-09-09T14:40:59;14.43;;;5.80;;
52104;SDS011;38103;42.776;23.112;2022-09-09T14:43:28;17.08;;;6.07;;
52104;SDS011;38103;42.776;23.112;2022-09-09T14:45:54;12.90;;;5.85;;
52104;SDS011;38103;42.776;23.112;2022-09-09T14:48:20;14.75;;;5.68;;
52104;SDS011;38103;42.776;23.112;2022-09-09T14:50:45;18.92;;;6.45;;
52104;SDS011;38103;42.776;23.112;2022-09-09T14:53:11;15.63;;;5.93;;
52104;SDS011;38103;42.776;23.112;2022-09-09T14:55:37;16.38;;;6.13;;
52104;SDS011;38103;42.776;23.112;2022-09-09T14:58:03;14.93;;;6.25;;
52104;SDS011;38103;42.776;23.112;2022-09-09T15:00:30;12.35;;;5.70;;
52104;SDS011;38103;42.776;23.112;2022-09-09T15:02:55;14.82;;;5.97;;
52104;SDS011;38103;42.776;23.112;2022-09-09T15:05:21;12.65;;;5.68;;
52104;SDS011;38103;42.776;23.112;2022-09-09T15:07:47;16.15;;;6.03;;
52104;SDS011;38103;42.776;23.112;2022-09-09T15:10:15;18.50;;;7.35;;
52104;SDS011;38103;42.776;23.112;2022-09-09T15:12:42;19.95;;;8.73;;
52104;SDS011;38103;42.776;23.112;2022-09-09T15:15:08;15.65;;;5.95;;
52104;SDS011;38103;42.776;23.112;2022-09-09T15:17:34;13.65;;;6.10;;
52104;SDS011;38103;42.776;23.112;2022-09-09T15:20:00;14.90;;;6.00;;
52104;SDS011;38103;42.776;23.112;2022-09-09T15:22:25;13.57;;;5.90;;
52104;SDS011;38103;42.776;23.112;2022-09-09T15:24:51;17.10;;;6.15;;
52104;SDS011;38103;42.776;23.112;2022-09-09T15:27:16;12.90;;;5.50;;
52104;SDS011;38103;42.776;23.112;2022-09-09T15:29:43;14.68;;;5.97;;
52104;SDS011;38103;42.776;23.112;2022-09-09T15:32:09;14.10;;;5.93;;
52104;SDS011;38103;42.776;23.112;2022-09-09T15:34:34;14.80;;;5.93;;
52104;SDS011;38103;42.776;23.112;2022-09-09T15:37:00;13.07;;;6.03;;
52104;SDS011;38103;42.776;23.112;2022-09-09T15:39:25;15.00;;;6.00;;
52104;SDS011;38103;42.776;23.112;2022-09-09T15:41:51;14.60;;;6.15;;
52104;SDS011;38103;42.776;23.112;2022-09-09T15:44:16;15.73;;;5.82;;
52104;SDS011;38103;42.776;23.112;2022-09-09T15:46:50;12.82;;;5.53;;
52104;SDS011;38103;42.776;23.112;2022-09-09T15:49:19;16.00;;;5.70;;
52104;SDS011;38103;42.776;23.112;2022-09-09T15:51:54;12.75;;;5.60;;
52104;SDS011;38103;42.776;23.112;2022-09-09T15:54:23;13.40;;;5.70;;
52104;SDS011;38103;42.776;23.112;2022-09-09T15:56:50;16.88;;;5.78;;
52104;SDS011;38103;42.776;23.112;2022-09-09T15:59:19;14.68;;;5.88;;
52104;SDS011;38103;42.776;23.112;2022-09-09T16:01:45;14.90;;;5.38;;
52104;SDS011;38103;42.776;23.112;2022-09-09T16:04:10;14.45;;;5.93;;
52104;SDS011;38103;42.776;23.112;2022-09-09T16:06:36;13.23;;;5.38;;
52104;SDS011;38103;42.776;23.112;2022-09-09T16:09:03;13.07;;;5.32;;
52104;SDS011;38103;42.776;23.112;2022-09-09T16:11:33;18.83;;;6.15;;
52104;SDS011;38103;42.776;23.112;2022-09-09T16:14:01;19.27;;;5.60;;
52104;SDS011;38103;42.776;23.112;2022-09-09T16:16:28;14.15;;;5.40;;
52104;SDS011;38103;42.776;23.112;2022-09-09T16:18:59;14.63;;;5.65;;
52104;SDS011;38103;42.776;23.112;2022-09-09T16:21:30;13.25;;;5.55;;
52104;SDS011;38103;42.776;23.112;2022-09-09T16:24:01;13.85;;;5.68;;
52104;SDS011;38103;42.776;23.112;2022-09-09T16:26:28;13.48;;;5.30;;
52104;SDS011;38103;42.776;23.112;2022-09-09T16:28:55;14.52;;;5.45;;
52104;SDS011;38103;42.776;23.112;2022-09-09T16:31:22;13.60;;;5.07;;
52104;SDS011;38103;42.776;23.112;2022-09-09T16:33:49;12.27;;;5.15;;
52104;SDS011;38103;42.776;23.112;2022-09-09T16:36:16;15.10;;;6.13;;
52104;SDS011;38103;42.776;23.112;2022-09-09T16:38:44;12.98;;;5.60;;
52104;SDS011;38103;42.776;23.112;2022-09-09T16:41:10;15.32;;;5.90;;
52104;SDS011;38103;42.776;23.112;2022-09-09T16:43:37;17.40;;;5.72;;
52104;SDS011;38103;42.776;23.112;2022-09-09T16:46:08;25.73;;;6.07;;
52104;SDS011;38103;42.776;23.112;2022-09-09T16:48:41;14.80;;;5.93;;
52104;SDS011;38103;42.776;23.112;2022-09-09T16:51:09;12.02;;;6.00;;
52104;SDS011;38103;42.776;23.112;2022-09-09T16:53:41;15.52;;;6.22;;
52104;SDS011;38103;42.776;23.112;2022-09-09T16:56:11;15.75;;;6.15;;
52104;SDS011;38103;42.776;23.112;2022-09-09T16:58:39;19.52;;;5.97;;
52104;SDS011;38103;42.776;23.112;2022-09-09T17:01:04;18.33;;;6.35;;
52104;SDS011;38103;42.776;23.112;2022-09-09T17:03:31;12.88;;;5.70;;
52104;SDS011;38103;42.776;23.112;2022-09-09T17:05:57;16.42;;;6.90;;
52104;SDS011;38103;42.776;23.112;2022-09-09T17:08:26;15.52;;;6.60;;
52104;SDS011;38103;42.776;23.112;2022-09-09T17:10:53;14.40;;;6.00;;
52104;SDS011;38103;42.776;23.112;2022-09-09T17:13:18;17.48;;;6.63;;
52104;SDS011;38103;42.776;23.112;2022-09-09T17:15:44;15.68;;;6.28;;
52104;SDS011;38103;42.776;23.112;2022-09-09T17:18:11;15.38;;;6.68;;
52104;SDS011;38103;42.776;23.112;2022-09-09T17:20:40;14.48;;;6.18;;